Time;durP1;ratioP1;P1;durP2;ratioP2;P2;SDS_P1;SDS_P2;PMS_P1;PMS_P2;Temp;Humidity;BMP_temperature;BMP_pressure;BME280_temperature;BME280_humidity;BME280_pressure;Samples;Min_cycle;Max_cycle;Signal;HPM_P1;HPM_P2
2021/06/19 00:00:15;;;;;;;7.87;3.33;;;26.60;99.90;;;;;;4969498;28;20475;-78
2021/06/19 00:02:44;;;;;;;5.43;3.27;;;26.60;99.90;;;;;;4966497;28;20451;-80
2021/06/19 00:05:14;;;;;;;6.50;3.50;;;26.60;99.90;;;;;;4967078;28;20586;-79
2021/06/19 00:07:42;;;;;;;6.87;3.60;;;26.60;99.90;;;;;;4970208;28;20435;-77
2021/06/19 00:10:14;;;;;;;3.93;2.83;;;26.50;99.90;;;;;;4968788;28;20487;-77
2021/06/19 00:12:45;;;;;;;5.43;2.83;;;26.50;99.90;;;;;;4966119;28;20517;-77
2021/06/19 00:15:16;;;;;;;10.77;4.57;;;26.20;99.90;;;;;;4963910;28;20535;-77
2021/06/19 00:17:45;;;;;;;8.60;3.83;;;26.00;99.90;;;;;;4964550;28;20521;-78
2021/06/19 00:20:16;;;;;;;16.50;5.90;;;25.70;99.90;;;;;;4969583;28;20479;-77
2021/06/19 00:22:45;;;;;;;6.10;3.20;;;25.00;99.90;;;;;;4968132;28;20546;-78
2021/06/19 00:25:16;;;;;;;13.50;4.03;;;24.60;99.90;;;;;;4968782;28;20482;-77
2021/06/19 00:27:47;;;;;;;14.27;3.70;;;24.40;99.90;;;;;;4975904;28;20820;-77
2021/06/19 00:30:16;;;;;;;6.90;3.27;;;24.50;99.90;;;;;;4976144;28;20482;-77
2021/06/19 00:32:46;;;;;;;10.87;2.80;;;24.70;99.90;;;;;;4970150;28;20826;-77
2021/06/19 00:35:16;;;;;;;8.63;4.20;;;24.80;99.90;;;;;;4967134;28;20556;-78
2021/06/19 00:37:44;;;;;;;7.80;4.30;;;24.80;99.90;;;;;;4971121;28;20456;-78
2021/06/19 00:40:14;;;;;;;6.93;5.07;;;24.80;99.90;;;;;;4969961;28;20993;-77
2021/06/19 00:42:52;;;;;;;7.97;4.60;;;24.90;1.00;;;;;;4960062;28;20448;-80
2021/06/19 00:45:21;;;;;;;10.10;4.87;;;24.90;1.00;;;;;;4967825;28;22339;-78
2021/06/19 00:47:49;;;;;;;11.13;4.53;;;24.80;1.00;;;;;;4970285;28;20459;-79
2021/06/19 00:50:18;;;;;;;9.17;5.90;;;24.80;1.00;;;;;;4966905;28;20479;-78
2021/06/19 00:52:47;;;;;;;11.80;4.23;;;24.80;1.00;;;;;;4981423;28;20534;-78
2021/06/19 00:55:16;;;;;;;8.90;4.10;;;25.00;26.20;;;;;;4962671;28;20452;-79
2021/06/19 00:57:45;;;;;;;12.60;6.87;;;25.00;99.90;;;;;;4967529;28;20501;-76
2021/06/19 01:00:16;;;;;;;7.10;4.30;;;25.00;99.90;;;;;;4969218;28;20829;-78
2021/06/19 01:02:45;;;;;;;7.93;4.57;;;25.00;99.90;;;;;;4971454;28;20454;-79
2021/06/19 01:05:14;;;;;;;12.63;4.70;;;24.90;1.00;;;;;;4969515;28;20479;-78
2021/06/19 01:07:42;;;;;;;8.33;4.90;;;25.00;99.90;;;;;;4971891;28;20546;-77
2021/06/19 01:10:12;;;;;;;7.33;4.53;;;25.00;1.00;;;;;;4973320;28;21005;-77
2021/06/19 01:12:43;;;;;;;8.00;3.90;;;24.80;1.00;;;;;;4974975;28;20495;-77
2021/06/19 01:15:12;;;;;;;7.83;5.50;;;24.80;11.10;;;;;;4971106;28;21058;-79
2021/06/19 01:17:42;;;;;;;7.27;4.40;;;24.80;99.90;;;;;;4974885;28;20962;-79
2021/06/19 01:20:12;;;;;;;6.07;4.17;;;24.70;1.00;;;;;;4967688;28;20918;-77
2021/06/19 01:22:42;;;;;;;6.70;4.93;;;24.50;99.90;;;;;;4973974;28;21013;-78
2021/06/19 01:25:17;;;;;;;8.57;4.40;;;24.20;99.90;;;;;;4973763;28;20467;-79
2021/06/19 01:27:48;;;;;;;8.87;4.80;;;24.10;99.90;;;;;;4969634;28;20821;-79
2021/06/19 01:30:17;;;;;;;8.10;3.77;;;24.10;99.90;;;;;;4961867;28;20573;-78
2021/06/19 01:32:47;;;;;;;7.40;4.40;;;24.30;99.90;;;;;;4971639;28;20451;-78
2021/06/19 01:35:16;;;;;;;8.70;4.70;;;24.40;99.90;;;;;;4970866;28;20462;-78
2021/06/19 01:37:45;;;;;;;7.40;4.37;;;24.40;24.90;;;;;;4974338;28;20458;-78
2021/06/19 01:40:17;;;;;;;8.63;4.97;;;24.50;1.00;;;;;;4973302;28;20479;-78
2021/06/19 01:42:49;;;;;;;7.00;4.90;;;24.50;1.00;;;;;;4971794;28;20535;-78
2021/06/19 01:45:19;;;;;;;4.17;3.30;;;24.60;1.00;;;;;;4972389;28;20998;-77
2021/06/19 01:47:48;;;;;;;8.53;3.63;;;24.60;1.00;;;;;;4973910;28;20483;-78
2021/06/19 01:50:18;;;;;;;7.50;4.67;;;24.70;1.00;;;;;;4972781;28;20533;-79
2021/06/19 01:52:48;;;;;;;6.90;4.40;;;24.70;1.00;;;;;;4969143;28;20456;-77
2021/06/19 01:55:18;;;;;;;10.90;5.33;;;24.70;1.00;;;;;;4972369;28;20447;-78
2021/06/19 01:57:47;;;;;;;7.43;4.63;;;24.80;1.00;;;;;;4964166;28;20443;-77
2021/06/19 02:00:18;;;;;;;9.50;4.30;;;24.70;1.00;;;;;;4971952;28;20475;-78
2021/06/19 02:02:47;;;;;;;4.83;4.07;;;24.70;73.60;;;;;;4971848;28;20451;-77
2021/06/19 02:05:17;;;;;;;7.03;4.47;;;24.60;99.90;;;;;;4970107;28;20495;-77
2021/06/19 02:07:47;;;;;;;5.97;4.47;;;24.70;99.90;;;;;;4972343;28;20469;-79
2021/06/19 02:10:17;;;;;;;6.20;4.67;;;24.60;99.90;;;;;;4973938;28;20478;-77
2021/06/19 02:12:46;;;;;;;8.60;4.70;;;24.60;99.90;;;;;;4958980;28;21217;-79
2021/06/19 02:15:15;;;;;;;4.73;4.27;;;24.70;99.90;;;;;;4974265;28;20447;-77
2021/06/19 02:17:44;;;;;;;5.73;5.20;;;24.60;99.90;;;;;;4969901;28;20493;-78
2021/06/19 02:20:14;;;;;;;8.60;4.03;;;24.40;1.00;;;;;;4972356;28;20476;-79
2021/06/19 02:22:43;;;;;;;11.13;5.13;;;24.30;1.00;;;;;;4971392;28;20853;-78
2021/06/19 02:25:14;;;;;;;7.80;4.77;;;24.10;65.70;;;;;;4972579;28;20475;-79
2021/06/19 02:27:53;;;;;;;9.67;4.73;;;24.00;1.00;;;;;;4972361;28;20475;-79
2021/06/19 02:30:23;;;;;;;5.23;4.70;;;23.90;1.00;;;;;;4971915;28;20557;-78
2021/06/19 02:32:52;;;;;;;10.60;4.90;;;23.80;1.00;;;;;;4973150;28;20850;-78
2021/06/19 02:35:21;;;;;;;6.93;4.47;;;23.90;1.00;;;;;;4966548;28;21369;-79
2021/06/19 02:37:49;;;;;;;7.77;4.17;;;23.70;99.90;;;;;;4971842;28;20482;-77
2021/06/19 02:40:18;;;;;;;8.53;5.30;;;23.70;99.90;;;;;;4972209;28;20482;-77
2021/06/19 02:42:47;;;;;;;8.50;4.67;;;23.80;99.90;;;;;;4971174;28;20550;-77
2021/06/19 02:45:17;;;;;;;9.00;5.00;;;23.90;99.90;;;;;;4973805;28;20525;-78
2021/06/19 02:47:47;;;;;;;7.83;3.83;;;24.00;15.50;;;;;;4971232;28;20471;-79
2021/06/19 02:50:17;;;;;;;7.00;4.77;;;24.10;13.20;;;;;;4969386;28;20519;-78
2021/06/19 02:52:46;;;;;;;9.57;4.30;;;24.10;1.00;;;;;;4971594;28;21028;-79
2021/06/19 02:55:16;;;;;;;11.00;5.40;;;23.90;31.40;;;;;;4969916;28;20526;-78
2021/06/19 02:57:45;;;;;;;9.03;5.30;;;23.80;1.00;;;;;;4971647;28;20481;-78
2021/06/19 03:00:16;;;;;;;9.30;5.23;;;23.70;99.90;;;;;;4972941;28;21029;-79
2021/06/19 03:02:46;;;;;;;8.60;5.07;;;23.70;1.00;;;;;;4954241;28;20454;-76
2021/06/19 03:05:16;;;;;;;10.43;5.07;;;23.60;1.00;;;;;;4970821;28;20491;-77
2021/06/19 03:07:44;;;;;;;10.23;6.17;;;23.70;1.00;;;;;;4972051;28;20463;-79
2021/06/19 03:10:15;;;;;;;9.73;5.10;;;23.60;1.00;;;;;;4971329;28;20561;-79
2021/06/19 03:12:44;;;;;;;8.90;4.20;;;23.60;1.00;;;;;;4970213;28;20819;-76
2021/06/19 03:15:13;;;;;;;14.73;5.47;;;23.70;1.00;;;;;;4970478;28;21033;-78
2021/06/19 03:17:43;;;;;;;9.87;4.90;;;23.70;1.00;;;;;;4969564;28;20547;-77
2021/06/19 03:20:14;;;;;;;8.40;4.57;;;23.60;1.00;;;;;;4969208;28;20475;-78
2021/06/19 03:22:45;;;;;;;6.40;5.40;;;23.60;1.00;;;;;;4968683;28;20455;-79
2021/06/19 03:25:17;;;;;;;7.47;4.70;;;23.70;1.00;;;;;;4967828;28;20470;-80
2021/06/19 03:27:45;;;;;;;7.27;4.93;;;23.80;1.00;;;;;;4962341;28;20447;-77
2021/06/19 03:30:15;;;;;;;12.97;5.40;;;23.90;99.90;;;;;;4966991;28;21061;-79
2021/06/19 03:32:45;;;;;;;5.67;5.00;;;23.90;99.90;;;;;;4973446;28;20518;-78
2021/06/19 03:35:14;;;;;;;7.47;4.53;;;24.00;99.90;;;;;;4970890;28;20454;-78
2021/06/19 03:37:44;;;;;;;4.80;4.30;;;24.10;82.40;;;;;;4970568;28;20455;-78
2021/06/19 03:40:14;;;;;;;10.00;5.40;;;24.00;99.90;;;;;;4968442;28;20498;-78
2021/06/19 03:42:44;;;;;;;5.57;4.77;;;24.00;1.00;;;;;;4967129;28;20475;-77
2021/06/19 03:45:14;;;;;;;7.83;5.23;;;24.00;1.00;;;;;;4969097;28;20459;-79
2021/06/19 03:47:43;;;;;;;8.43;4.73;;;24.00;1.00;;;;;;4966533;28;20478;-78
2021/06/19 03:50:15;;;;;;;6.90;4.50;;;24.10;1.00;;;;;;4967740;28;20597;-77
2021/06/19 03:52:49;;;;;;;9.90;4.97;;;24.00;1.00;;;;;;4968585;28;20466;-78
2021/06/19 03:55:17;;;;;;;6.10;5.57;;;24.00;99.90;;;;;;4968634;28;20533;-77
2021/06/19 03:57:45;;;;;;;7.40;4.90;;;24.00;99.90;;;;;;4969644;28;20486;-78
2021/06/19 04:00:15;;;;;;;10.77;6.00;;;24.00;99.90;;;;;;4968927;28;20530;-79
2021/06/19 04:02:45;;;;;;;6.37;4.70;;;24.10;99.90;;;;;;4971043;28;20474;-79
2021/06/19 04:05:16;;;;;;;4.60;4.27;;;24.10;99.90;;;;;;4969620;28;20459;-78
2021/06/19 04:07:45;;;;;;;8.63;5.67;;;24.00;1.00;;;;;;4965384;28;20518;-79
2021/06/19 04:10:14;;;;;;;9.60;5.30;;;24.10;1.00;;;;;;4969526;28;20470;-78
2021/06/19 04:12:44;;;;;;;6.00;5.30;;;24.10;99.90;;;;;;4970581;28;20442;-79
2021/06/19 04:15:13;;;;;;;8.87;7.13;;;24.10;1.00;;;;;;4967311;28;20455;-79
2021/06/19 04:17:43;;;;;;;6.57;4.93;;;24.10;1.00;;;;;;4967008;28;20467;-78
2021/06/19 04:20:14;;;;;;;6.90;6.20;;;24.10;1.00;;;;;;4966730;28;20525;-79
2021/06/19 04:22:44;;;;;;;8.37;5.50;;;24.10;1.00;;;;;;4971075;28;20462;-80
2021/06/19 04:25:15;;;;;;;8.73;5.80;;;24.10;13.30;;;;;;4968209;28;20506;-81
2021/06/19 04:27:46;;;;;;;7.50;5.50;;;24.10;99.90;;;;;;4954135;28;20471;-79
2021/06/19 04:30:15;;;;;;;6.93;5.17;;;24.10;99.90;;;;;;4967696;28;20478;-78
2021/06/19 04:32:45;;;;;;;8.17;6.10;;;24.10;99.90;;;;;;4969988;28;20893;-78
2021/06/19 04:35:15;;;;;;;12.60;5.80;;;24.00;99.90;;;;;;4969447;28;20451;-80
2021/06/19 04:37:44;;;;;;;12.03;6.43;;;24.10;99.90;;;;;;4966700;28;20462;-78
2021/06/19 04:40:18;;;;;;;5.73;5.20;;;24.10;99.90;;;;;;4970391;28;20451;-78
2021/06/19 04:42:56;;;;;;;4.70;4.27;;;24.10;1.00;;;;;;4952015;28;20467;-78
2021/06/19 04:45:25;;;;;;;6.23;4.97;;;24.10;1.00;;;;;;4962301;28;20458;-77
2021/06/19 04:47:57;;;;;;;4.87;4.23;;;24.00;1.00;;;;;;4974101;28;20537;-79
2021/06/19 04:50:28;;;;;;;7.30;4.93;;;24.00;1.00;;;;;;4967359;28;20537;-77
2021/06/19 04:52:56;;;;;;;5.90;5.40;;;24.00;1.00;;;;;;4973667;28;20538;-79
2021/06/19 04:55:24;;;;;;;4.87;4.43;;;24.10;1.00;;;;;;4973608;28;20457;-77
2021/06/19 04:57:55;;;;;;;5.50;4.10;;;24.00;99.90;;;;;;4962242;28;20454;-77
2021/06/19 05:00:24;;;;;;;10.23;5.47;;;24.00;99.90;;;;;;4973631;28;20463;-77
2021/06/19 05:02:53;;;;;;;6.27;5.30;;;24.00;1.00;;;;;;4956105;28;20436;-76
2021/06/19 05:05:23;;;;;;;8.00;5.03;;;24.10;99.90;;;;;;4973036;28;20455;-76
2021/06/19 05:07:53;;;;;;;12.03;5.33;;;24.20;99.90;;;;;;4972345;28;20486;-79
2021/06/19 05:10:21;;;;;;;7.67;6.20;;;24.20;99.90;;;;;;4971460;28;20471;-78
2021/06/19 05:12:50;;;;;;;7.87;5.63;;;24.20;99.90;;;;;;4969165;28;20514;-79
2021/06/19 05:15:24;;;;;;;7.40;6.07;;;24.30;1.00;;;;;;4971492;28;20509;-78
2021/06/19 05:17:53;;;;;;;7.93;5.93;;;24.30;1.00;;;;;;4967370;28;20463;-78
2021/06/19 05:20:21;;;;;;;6.07;5.47;;;24.20;1.00;;;;;;4972624;28;20545;-78
2021/06/19 05:22:50;;;;;;;9.60;6.30;;;24.30;99.90;;;;;;4972648;28;20967;-76
2021/06/19 05:25:19;;;;;;;6.43;5.50;;;24.30;99.90;;;;;;4964519;28;20533;-78
2021/06/19 05:27:48;;;;;;;7.63;5.90;;;24.20;1.00;;;;;;4966476;28;20856;-78
2021/06/19 05:30:17;;;;;;;7.93;5.80;;;24.20;1.00;;;;;;4971658;28;20486;-78
2021/06/19 05:32:45;;;;;;;7.27;5.80;;;24.30;99.90;;;;;;4971045;28;20461;-76
2021/06/19 05:35:14;;;;;;;9.30;5.70;;;24.30;99.90;;;;;;4971770;28;20541;-77
2021/06/19 05:37:42;;;;;;;7.10;5.90;;;24.30;28.90;;;;;;4969651;28;20467;-67
2021/06/19 05:40:10;;;;;;;8.60;6.07;;;24.30;1.00;;;;;;4965900;28;20486;-67
2021/06/19 05:42:40;;;;;;;7.33;5.67;;;24.20;99.90;;;;;;4971668;28;20915;-67
2021/06/19 05:45:09;;;;;;;7.40;5.97;;;24.20;1.00;;;;;;4969793;28;20447;-69
2021/06/19 05:47:37;;;;;;;6.87;5.57;;;24.20;36.60;;;;;;4967177;28;21270;-67
2021/06/19 05:50:08;;;;;;;8.53;6.20;;;24.10;1.00;;;;;;4971239;28;21041;-65
2021/06/19 05:52:36;;;;;;;6.47;5.60;;;24.10;1.00;;;;;;4968443;28;21061;-65
2021/06/19 05:55:05;;;;;;;6.50;5.80;;;24.10;99.90;;;;;;4970872;28;20494;-66
2021/06/19 05:57:33;;;;;;;8.07;7.30;;;24.10;99.90;;;;;;4969453;28;20455;-67
2021/06/19 06:00:05;;;;;;;8.70;5.93;;;24.20;99.90;;;;;;4971297;28;20521;-68
2021/06/19 06:02:33;;;;;;;10.67;7.20;;;24.30;99.90;;;;;;4970655;28;20474;-67
2021/06/19 06:05:01;;;;;;;14.43;6.40;;;24.30;1.00;;;;;;4966220;28;20467;-68
2021/06/19 06:07:29;;;;;;;6.57;5.23;;;24.30;1.00;;;;;;4979119;28;20536;-68
2021/06/19 06:09:57;;;;;;;8.47;6.60;;;24.30;99.90;;;;;;4969883;28;20533;-68
2021/06/19 06:12:25;;;;;;;7.70;6.03;;;24.30;99.90;;;;;;4967930;28;20455;-68
2021/06/19 06:14:54;;;;;;;7.70;6.57;;;24.30;1.00;;;;;;4969248;28;20469;-66
2021/06/19 06:17:25;;;;;;;7.47;6.47;;;24.30;99.90;;;;;;4970233;28;20443;-64
2021/06/19 06:19:53;;;;;;;6.23;5.73;;;24.30;1.00;;;;;;4970115;28;21005;-66
2021/06/19 06:22:21;;;;;;;8.93;6.17;;;24.40;99.90;;;;;;4970677;28;20459;-67
2021/06/19 06:24:49;;;;;;;9.87;6.93;;;24.40;99.90;;;;;;4970761;28;20491;-68
2021/06/19 06:27:18;;;;;;;6.30;5.70;;;24.40;99.90;;;;;;4971487;28;20911;-67
2021/06/19 06:29:46;;;;;;;8.43;7.00;;;24.50;99.90;;;;;;4963508;28;20566;-67
2021/06/19 06:32:14;;;;;;;9.10;7.23;;;24.50;99.90;;;;;;4967508;28;20900;-66
2021/06/19 06:34:44;;;;;;;9.17;6.70;;;24.60;1.00;;;;;;4971563;28;20443;-66
2021/06/19 06:37:12;;;;;;;6.87;6.17;;;24.60;99.90;;;;;;4970150;28;20447;-66
2021/06/19 06:39:40;;;;;;;7.90;6.30;;;24.60;99.90;;;;;;4972266;28;20850;-66
2021/06/19 06:42:09;;;;;;;7.00;6.30;;;24.70;99.90;;;;;;4966964;28;20443;-66
2021/06/19 06:44:37;;;;;;;8.77;6.30;;;24.80;99.90;;;;;;4969345;28;21037;-68
2021/06/19 06:47:06;;;;;;;7.70;7.00;;;24.80;99.90;;;;;;4970476;28;20466;-66
2021/06/19 06:49:34;;;;;;;9.23;6.87;;;25.00;1.00;;;;;;4968394;28;20451;-64
2021/06/19 06:52:05;;;;;;;10.20;6.80;;;25.00;81.20;;;;;;4977579;28;20875;-69
2021/06/19 06:54:38;;;;;;;7.50;6.80;;;25.00;99.90;;;;;;4968843;28;20455;-69
2021/06/19 06:57:07;;;;;;;11.27;6.43;;;25.10;99.90;;;;;;4973659;28;20451;-69
2021/06/19 06:59:35;;;;;;;6.27;5.77;;;25.20;99.90;;;;;;4967429;28;20462;-69
2021/06/19 07:02:04;;;;;;;7.43;6.07;;;25.30;99.90;;;;;;4969879;28;20495;-68
2021/06/19 07:04:33;;;;;;;7.27;6.30;;;25.30;1.00;;;;;;4971039;28;20459;-80
2021/06/19 07:07:01;;;;;;;7.60;6.90;;;25.40;99.90;;;;;;4968983;28;20542;-81
2021/06/19 07:09:30;;;;;;;6.60;6.00;;;25.50;99.90;;;;;;4971744;28;20521;-80
2021/06/19 07:11:58;;;;;;;7.87;6.30;;;25.60;99.90;;;;;;4971394;28;20526;-81
2021/06/19 07:14:27;;;;;;;10.40;6.43;;;25.70;1.00;;;;;;4952909;28;20464;-81
2021/06/19 07:16:55;;;;;;;7.17;5.93;;;25.70;1.00;;;;;;4963692;28;20455;-82
2021/06/19 07:19:23;;;;;;;8.50;6.27;;;25.80;1.00;;;;;;4986358;28;20489;-80
2021/06/19 07:21:51;;;;;;;8.00;6.33;;;25.80;1.00;;;;;;4973185;28;21124;-81
2021/06/19 07:24:19;;;;;;;8.03;6.43;;;25.90;94.60;;;;;;4971884;28;20509;-81
2021/06/19 07:26:49;;;;;;;10.10;7.50;;;25.90;42.10;;;;;;4973227;28;20439;-80
2021/06/19 07:29:17;;;;;;;7.27;6.57;;;26.00;99.90;;;;;;4970883;28;20481;-81
2021/06/19 07:31:46;;;;;;;7.67;6.53;;;26.00;99.90;;;;;;4972470;28;20490;-80
2021/06/19 07:34:14;;;;;;;8.60;7.50;;;26.00;99.90;;;;;;4971463;28;20470;-81
2021/06/19 07:36:45;;;;;;;11.60;7.43;;;26.10;21.70;;;;;;4971151;28;20459;-81
2021/06/19 07:39:13;;;;;;;7.37;6.70;;;26.10;1.00;;;;;;4989063;28;20523;-81
2021/06/19 07:41:41;;;;;;;9.47;6.73;;;26.10;1.00;;;;;;4986358;28;20481;-81
2021/06/19 07:44:11;;;;;;;12.03;6.60;;;26.20;30.40;;;;;;4987551;28;20987;-81
2021/06/19 07:46:39;;;;;;;7.27;6.57;;;26.20;1.00;;;;;;4970448;28;20461;-80
2021/06/19 07:49:08;;;;;;;10.83;6.87;;;26.20;1.00;;;;;;4968932;28;20555;-81
2021/06/19 07:51:36;;;;;;;7.10;6.50;;;26.30;1.00;;;;;;4972727;28;20463;-83
2021/06/19 07:54:05;;;;;;;7.17;6.57;;;26.30;99.90;;;;;;4971482;28;20487;-82
2021/06/19 07:56:33;;;;;;;7.43;5.57;;;26.30;1.00;;;;;;4972375;28;20463;-81
2021/06/19 07:59:01;;;;;;;6.67;6.07;;;26.40;16.20;;;;;;4971321;28;20443;-81
2021/06/19 08:01:31;;;;;;;7.00;6.20;;;26.40;99.90;;;;;;4972264;28;20521;-81
2021/06/19 08:03:59;;;;;;;9.30;6.20;;;26.50;99.90;;;;;;4971697;28;20447;-81
2021/06/19 08:06:28;;;;;;;6.60;6.00;;;26.50;49.10;;;;;;4972223;28;20463;-81
2021/06/19 08:09:00;;;;;;;6.30;5.70;;;26.50;99.90;;;;;;4971211;28;20565;-79
2021/06/19 08:11:29;;;;;;;6.50;5.63;;;26.50;99.90;;;;;;4972013;28;21014;-81
2021/06/19 08:13:57;;;;;;;7.20;6.60;;;26.60;99.90;;;;;;4988328;28;20458;-80
2021/06/19 08:16:27;;;;;;;7.43;5.17;;;26.60;99.90;;;;;;4985407;28;20451;-81
2021/06/19 08:18:57;;;;;;;8.40;6.10;;;26.60;1.00;;;;;;4971119;28;20839;-81
2021/06/19 08:21:25;;;;;;;5.83;5.23;;;26.70;1.00;;;;;;4969913;28;20475;-82
2021/06/19 08:23:54;;;;;;;9.53;6.97;;;26.70;1.00;;;;;;4986657;28;20505;-81
2021/06/19 08:26:22;;;;;;;7.17;6.43;;;26.70;1.00;;;;;;4991396;28;20446;-79
2021/06/19 08:28:53;;;;;;;8.13;6.00;;;26.80;1.00;;;;;;4992221;28;20474;-80
2021/06/19 08:31:21;;;;;;;7.00;5.77;;;26.80;1.00;;;;;;4992562;28;20533;-79
2021/06/19 08:33:49;;;;;;;8.53;5.70;;;26.90;1.00;;;;;;4993031;28;20454;-79
2021/06/19 08:36:19;;;;;;;8.20;6.30;;;26.90;1.00;;;;;;4979024;28;20463;-79
2021/06/19 08:38:47;;;;;;;10.80;6.90;;;26.90;1.00;;;;;;4972426;28;20841;-79
2021/06/19 08:41:16;;;;;;;5.60;5.10;;;26.90;1.00;;;;;;4971572;28;20483;-80
2021/06/19 08:43:44;;;;;;;6.97;5.63;;;26.90;1.00;;;;;;4973789;28;20963;-81
2021/06/19 08:46:14;;;;;;;7.63;6.63;;;26.90;1.00;;;;;;4972875;28;20458;-79
2021/06/19 08:48:43;;;;;;;6.83;6.17;;;27.00;1.00;;;;;;4972022;28;20518;-80
2021/06/19 08:51:11;;;;;;;6.50;5.90;;;27.10;1.00;;;;;;4974271;28;20499;-79
2021/06/19 08:53:40;;;;;;;8.20;5.60;;;27.10;1.00;;;;;;4974619;28;20447;-79
2021/06/19 08:56:14;;;;;;;8.07;6.13;;;27.10;1.00;;;;;;4971071;28;20908;-80
2021/06/19 08:58:43;;;;;;;7.90;6.00;;;27.20;1.00;;;;;;4972709;28;20498;-80
2021/06/19 09:01:11;;;;;;;6.07;5.47;;;27.10;1.00;;;;;;4973688;28;20965;-80
2021/06/19 09:03:40;;;;;;;6.37;5.50;;;27.20;1.00;;;;;;4988707;28;20550;-80
2021/06/19 09:06:24;;;;;;;7.20;5.93;;;27.20;1.00;;;;;;4979805;28;21038;-81
2021/06/19 09:09:06;;;;;;;6.90;5.30;;;27.20;1.00;;;;;;4972833;28;20478;-79
2021/06/19 09:11:35;;;;;;;7.10;5.40;;;27.30;1.00;;;;;;4972520;28;20455;-79
2021/06/19 09:14:05;;;;;;;10.33;7.17;;;27.30;1.00;;;;;;4991640;28;20867;-80
2021/06/19 09:16:34;;;;;;;10.23;6.43;;;27.30;1.00;;;;;;4984644;28;20451;-80
2021/06/19 09:19:03;;;;;;;8.10;6.23;;;27.40;1.00;;;;;;4973419;28;20761;-80
2021/06/19 09:21:35;;;;;;;12.43;5.47;;;27.50;1.00;;;;;;4980843;28;20482;-79
2021/06/19 09:24:05;;;;;;;8.80;6.93;;;27.50;1.00;;;;;;4972153;28;21034;-81
2021/06/19 09:26:33;;;;;;;7.13;5.70;;;27.50;99.90;;;;;;4972438;28;20518;-80
2021/06/19 09:29:09;;;;;;;8.90;6.30;;;27.50;99.90;;;;;;4969921;28;20522;-80
2021/06/19 09:31:43;;;;;;;9.20;5.50;;;27.50;99.90;;;;;;4972769;28;20489;-80
2021/06/19 09:34:13;;;;;;;5.83;5.23;;;27.60;99.90;;;;;;4975247;28;20451;-81
2021/06/19 09:36:48;;;;;;;6.87;6.07;;;27.60;99.90;;;;;;4982503;28;20455;-79
2021/06/19 09:39:19;;;;;;;9.30;5.40;;;27.70;99.90;;;;;;4980281;28;20519;-81
2021/06/19 09:41:51;;;;;;;7.53;5.97;;;27.70;99.90;;;;;;4995221;28;20521;-80
2021/06/19 09:44:34;;;;;;;6.20;5.20;;;27.70;99.90;;;;;;4979797;28;20455;-77
2021/06/19 09:47:02;;;;;;;7.37;5.73;;;27.70;99.90;;;;;;4973040;28;20447;-77
2021/06/19 09:49:32;;;;;;;6.87;5.50;;;27.70;99.90;;;;;;4970955;28;20483;-78
2021/06/19 09:52:02;;;;;;;9.30;6.53;;;27.80;99.90;;;;;;4973610;28;20486;-77
2021/06/19 09:54:39;;;;;;;8.80;7.97;;;27.90;99.90;;;;;;4989184;28;20455;-78
2021/06/19 09:57:11;;;;;;;6.63;6.00;;;28.00;99.90;;;;;;4989273;28;20478;-76
2021/06/19 09:59:40;;;;;;;6.70;6.10;;;28.10;99.90;;;;;;4972759;28;20453;-77
2021/06/19 10:02:18;;;;;;;8.67;7.47;;;28.10;99.90;;;;;;4981016;28;20830;-76
2021/06/19 10:04:51;;;;;;;8.60;6.03;;;28.10;99.90;;;;;;4972344;28;20513;-77
2021/06/19 10:07:19;;;;;;;8.87;6.30;;;28.10;99.90;;;;;;4974494;28;20494;-75
2021/06/19 10:09:49;;;;;;;6.53;5.80;;;28.20;99.90;;;;;;4973258;28;20914;-77
2021/06/19 10:12:20;;;;;;;7.87;5.67;;;28.20;99.90;;;;;;4974153;28;20517;-76
2021/06/19 10:14:50;;;;;;;8.17;5.30;;;28.20;99.90;;;;;;4972206;28;20542;-77
2021/06/19 10:17:22;;;;;;;6.37;5.70;;;28.20;99.90;;;;;;4974161;28;20439;-77
2021/06/19 10:19:52;;;;;;;7.57;6.43;;;28.30;99.90;;;;;;4972074;28;20479;-77
2021/06/19 10:22:24;;;;;;;8.20;5.47;;;28.30;99.90;;;;;;4974588;28;20463;-78
2021/06/19 10:24:55;;;;;;;7.20;5.47;;;28.40;99.90;;;;;;4972016;28;20525;-77
2021/06/19 10:27:28;;;;;;;6.37;5.60;;;28.40;99.90;;;;;;4974000;28;20485;-78
2021/06/19 10:29:58;;;;;;;7.93;5.50;;;28.50;99.90;;;;;;4971973;28;20521;-77
2021/06/19 10:32:39;;;;;;;7.27;6.13;;;28.50;99.90;;;;;;4990732;28;20513;-77
2021/06/19 10:35:12;;;;;;;11.47;5.50;;;28.50;99.90;;;;;;4980754;28;20447;-77
2021/06/19 10:37:41;;;;;;;9.27;5.87;;;28.60;99.90;;;;;;4972541;28;20466;-77
2021/06/19 10:40:23;;;;;;;5.60;5.20;;;28.60;99.90;;;;;;4961466;28;20480;-77
2021/06/19 10:42:53;;;;;;;7.00;4.73;;;28.70;99.90;;;;;;4952887;29;20506;-77
2021/06/19 10:45:23;;;;;;;9.60;5.30;;;28.70;99.90;;;;;;4953347;29;20460;-78
2021/06/19 10:48:01;;;;;;;6.07;5.50;;;28.70;99.90;;;;;;4971674;28;20504;-77
2021/06/19 10:50:30;;;;;;;5.30;4.80;;;28.70;99.90;;;;;;4974627;28;20486;-77
2021/06/19 10:53:10;;;;;;;9.57;5.50;;;28.70;99.90;;;;;;4975257;28;20501;-77
2021/06/19 10:55:55;;;;;;;9.63;4.53;;;28.70;99.90;;;;;;4973902;28;20451;-77
2021/06/19 10:58:25;;;;;;;5.67;4.60;;;28.70;99.90;;;;;;4971419;28;20597;-76
2021/06/19 11:00:55;;;;;;;8.37;7.50;;;28.80;99.90;;;;;;4977649;28;20528;-76
2021/06/19 11:03:44;;;;;;;8.73;5.57;;;28.80;99.90;;;;;;4987915;28;20511;-76
2021/06/19 11:06:21;;;;;;;8.13;5.97;;;28.90;99.90;;;;;;4973412;28;20446;-78
2021/06/19 11:09:04;;;;;;;12.90;5.37;;;28.90;99.90;;;;;;4973191;28;20455;-77
2021/06/19 11:12:06;;;;;;;8.63;5.13;;;29.00;99.90;;;;;;4973160;28;20483;-78
2021/06/19 11:14:55;;;;;;;5.50;4.97;;;29.00;99.90;;;;;;4984490;28;20464;-77
2021/06/19 11:17:50;;;;;;;6.50;5.10;;;29.00;99.90;;;;;;4978815;28;20479;-77
2021/06/19 11:20:27;;;;;;;7.07;5.40;;;29.10;99.90;;;;;;4972679;28;20501;-78
2021/06/19 11:23:04;;;;;;;10.47;5.00;;;29.10;99.90;;;;;;4964879;28;20451;-79
2021/06/19 11:26:02;;;;;;;7.87;5.10;;;29.10;99.90;;;;;;4962699;28;20456;-81
2021/06/19 11:28:32;;;;;;;9.10;5.10;;;29.10;99.90;;;;;;4968060;28;20464;-80
2021/06/19 11:31:03;;;;;;;7.40;4.90;;;29.20;99.90;;;;;;4967082;28;20766;-80
2021/06/19 11:33:57;;;;;;;5.33;4.53;;;29.10;99.90;;;;;;4964791;28;20465;-81
2021/06/19 11:36:36;;;;;;;8.47;3.63;;;29.10;99.90;;;;;;4970323;28;20505;-83
2021/06/19 11:39:10;;;;;;;7.90;4.53;;;29.20;99.90;;;;;;4970126;28;20443;-82
2021/06/19 11:41:42;;;;;;;9.10;3.60;;;29.20;99.90;;;;;;4978116;28;20467;-83
2021/06/19 11:44:16;;;;;;;6.93;4.60;;;29.20;99.90;;;;;;4970694;28;20467;-82
2021/06/19 11:46:50;;;;;;;7.77;4.10;;;29.30;99.90;;;;;;4971172;28;20455;-82
2021/06/19 11:49:18;;;;;;;8.03;4.37;;;29.30;99.90;;;;;;4972080;28;20455;-81
2021/06/19 11:51:55;;;;;;;13.20;5.13;;;29.30;99.90;;;;;;4970297;28;21174;-81
2021/06/19 11:54:25;;;;;;;7.17;3.77;;;29.40;99.90;;;;;;4974985;28;20886;-80
2021/06/19 11:56:55;;;;;;;6.13;3.90;;;29.40;99.90;;;;;;4965687;28;20474;-81
2021/06/19 11:59:26;;;;;;;8.90;3.90;;;29.40;99.90;;;;;;4971697;28;20520;-79
2021/06/19 12:01:54;;;;;;;9.10;3.87;;;29.40;99.90;;;;;;4970874;28;20447;-81
2021/06/19 12:04:27;;;;;;;8.03;4.80;;;29.50;99.90;;;;;;4969076;28;20463;-79
2021/06/19 12:06:56;;;;;;;5.67;4.37;;;29.50;99.90;;;;;;4969854;28;20521;-82
2021/06/19 12:09:26;;;;;;;7.50;4.03;;;29.50;99.90;;;;;;4970286;28;20541;-82
2021/06/19 12:11:56;;;;;;;8.10;4.03;;;29.60;99.90;;;;;;4969775;28;20672;-81
2021/06/19 12:14:29;;;;;;;6.20;4.00;;;29.60;99.90;;;;;;4969757;28;20462;-81
2021/06/19 12:17:00;;;;;;;5.57;3.40;;;29.60;99.90;;;;;;4973114;28;21033;-80
2021/06/19 12:19:30;;;;;;;5.40;3.80;;;29.60;99.90;;;;;;4969679;28;20471;-78
2021/06/19 12:22:00;;;;;;;7.00;3.67;;;29.60;99.90;;;;;;4969289;28;20440;-81
2021/06/19 12:24:31;;;;;;;5.70;3.80;;;29.70;99.90;;;;;;4970636;28;20454;-82
2021/06/19 12:27:05;;;;;;;9.07;4.40;;;29.70;99.90;;;;;;4976892;28;20450;-82
2021/06/19 12:29:37;;;;;;;8.83;4.33;;;29.70;99.90;;;;;;4960111;28;20974;-82
2021/06/19 12:32:26;;;;;;;11.37;4.53;;;29.70;99.90;;;;;;4971949;28;20482;-81
2021/06/19 12:34:57;;;;;;;6.73;4.30;;;29.70;99.90;;;;;;4972729;28;20546;-80
2021/06/19 12:37:28;;;;;;;5.00;4.50;;;29.80;99.90;;;;;;4973726;28;20471;-82
2021/06/19 12:39:56;;;;;;;8.23;5.33;;;29.70;99.90;;;;;;4969250;28;20927;-82
2021/06/19 12:42:37;;;;;;;6.93;5.20;;;29.70;99.90;;;;;;4970675;28;21489;-82
2021/06/19 12:45:10;;;;;;;8.20;5.40;;;29.80;99.90;;;;;;4978545;28;20462;-83
2021/06/19 12:47:42;;;;;;;7.63;4.50;;;29.80;99.90;;;;;;4969208;28;20465;-82
2021/06/19 12:50:12;;;;;;;7.80;4.97;;;29.90;99.90;;;;;;4971722;28;20467;-81
2021/06/19 12:52:56;;;;;;;6.73;3.93;;;29.80;99.90;;;;;;4971303;28;20550;-81
2021/06/19 12:55:25;;;;;;;9.90;5.13;;;29.80;99.90;;;;;;4962832;28;20968;-83
2021/06/19 12:58:12;;;;;;;7.37;4.40;;;29.80;99.90;;;;;;4970593;28;20451;-81
2021/06/19 13:00:44;;;;;;;6.50;4.50;;;29.90;99.90;;;;;;4965597;28;20530;-81
2021/06/19 13:03:16;;;;;;;6.60;4.47;;;29.90;99.90;;;;;;4965295;28;20510;-83
2021/06/19 13:05:54;;;;;;;8.00;4.57;;;30.00;99.90;;;;;;4976512;28;20455;-83